createdAt,value
2018-09-27T00:00:31.804Z,52.62
2018-09-27T00:03:02.307Z,52.44
2018-09-27T00:05:32.685Z,52.59
2018-09-27T00:08:02.928Z,52.72
2018-09-27T00:10:33.452Z,52.58
2018-09-27T00:13:03.798Z,52.96
2018-09-27T00:15:34.196Z,53.35
2018-09-27T00:18:04.516Z,53.25
2018-09-27T00:20:34.833Z,52.75
2018-09-27T00:23:05.191Z,52.45
2018-09-27T00:25:35.713Z,53.03
2018-09-27T00:28:06.147Z,52.82
2018-09-27T00:30:36.464Z,53.03
2018-09-27T00:33:06.910Z,53.16
2018-09-27T00:35:37.346Z,53.00
2018-09-27T00:38:07.789Z,53.36
2018-09-27T00:40:38.327Z,52.93
2018-09-27T00:43:08.783Z,53.48
2018-09-27T00:45:43.038Z,53.46
2018-09-27T00:48:15.972Z,53.37
2018-09-27T00:50:47.095Z,53.66
2018-09-27T00:53:17.473Z,54.29
2018-09-27T00:55:47.593Z,54.19
2018-09-27T00:58:17.834Z,53.77
2018-09-27T01:00:48.125Z,54.52
2018-09-27T01:03:18.401Z,54.88
2018-09-27T01:05:48.784Z,54.74
2018-09-27T01:08:19.177Z,55.03
2018-09-27T01:10:49.567Z,55.13
2018-09-27T01:13:19.923Z,55.51
2018-09-27T01:15:50.365Z,55.07
2018-09-27T01:18:20.669Z,55.76
2018-09-27T01:20:51.273Z,55.66
2018-09-27T01:23:21.557Z,55.93
2018-09-27T01:25:51.921Z,55.71
2018-09-27T01:28:22.274Z,56.25
2018-09-27T01:30:52.394Z,56.35
2018-09-27T01:33:22.733Z,55.67
2018-09-27T01:35:53.130Z,56.25
2018-09-27T01:38:23.622Z,55.99
2018-09-27T01:40:54.122Z,56.91
2018-09-27T01:43:24.445Z,56.64
2018-09-27T01:45:54.742Z,56.81
2018-09-27T01:48:25.142Z,56.07
2018-09-27T01:50:55.303Z,57.51
2018-09-27T01:53:25.641Z,57.21
2018-09-27T01:55:56.073Z,57.70
2018-09-27T01:58:26.669Z,57.41
2018-09-27T02:00:56.945Z,57.89
2018-09-27T02:03:27.317Z,58.06
2018-09-27T02:05:57.493Z,58.28
2018-09-27T02:08:27.937Z,59.00
2018-09-27T02:10:58.264Z,58.37
2018-09-27T02:13:28.613Z,59.41
2018-09-27T02:16:00.144Z,59.72
2018-09-27T02:18:30.411Z,58.81
2018-09-27T02:21:00.795Z,58.42
2018-09-27T02:23:31.202Z,59.56
2018-09-27T02:26:01.462Z,58.64
2018-09-27T02:28:31.950Z,57.74
2018-09-27T02:31:02.190Z,57.59
2018-09-27T02:33:32.559Z,57.08
2018-09-27T02:36:02.884Z,58.02
2018-09-27T02:38:33.158Z,57.82
2018-09-27T02:41:03.632Z,57.48
2018-09-27T02:43:33.974Z,57.29
2018-09-27T02:46:04.550Z,58.07
2018-09-27T02:48:34.953Z,57.81
2018-09-27T02:51:05.129Z,57.31
2018-09-27T02:53:35.484Z,57.55
2018-09-27T02:56:06.011Z,57.66
2018-09-27T02:58:36.250Z,57.09
2018-09-27T03:01:06.667Z,57.23
2018-09-27T03:03:37.037Z,57.56
2018-09-27T03:06:07.642Z,57.41
2018-09-27T03:08:38.043Z,57.67
2018-09-27T03:11:08.369Z,57.67
2018-09-27T03:13:38.862Z,57.24
2018-09-27T03:16:09.232Z,57.03
2018-09-27T03:18:39.617Z,56.87
2018-09-27T03:21:10.000Z,56.57
2018-09-27T03:23:40.362Z,56.84
2018-09-27T03:26:10.747Z,57.09
2018-09-27T03:28:41.269Z,56.75
2018-09-27T03:31:11.710Z,56.42
2018-09-27T03:33:42.313Z,56.61
2018-09-27T03:36:12.602Z,55.90
2018-09-27T03:38:42.761Z,56.22
2018-09-27T03:41:13.047Z,56.36
2018-09-27T03:43:43.590Z,55.86
2018-09-27T03:46:13.882Z,56.61
2018-09-27T03:48:44.270Z,55.96
2018-09-27T03:51:14.749Z,56.17
2018-09-27T03:53:45.139Z,56.34
2018-09-27T03:56:15.301Z,56.23
2018-09-27T03:58:45.585Z,56.74
2018-09-27T04:01:15.858Z,55.97
2018-09-27T04:03:46.261Z,56.18
2018-09-27T04:06:16.617Z,55.63
2018-09-27T04:08:47.089Z,56.46
2018-09-27T04:11:17.490Z,55.80
2018-09-27T04:13:47.891Z,55.37
2018-09-27T04:16:18.137Z,56.27
2018-09-27T04:18:48.649Z,55.46
2018-09-27T04:21:19.017Z,55.97
2018-09-27T04:23:49.504Z,56.49
2018-09-27T04:26:19.834Z,56.46
2018-09-27T04:28:50.238Z,56.98
2018-09-27T04:31:20.733Z,56.32
2018-09-27T04:33:51.380Z,57.26
2018-09-27T04:36:21.813Z,56.99
2018-09-27T04:38:52.276Z,57.62
2018-09-27T04:41:22.516Z,56.95
2018-09-27T04:43:52.810Z,57.45
2018-09-27T04:46:23.340Z,57.63
2018-09-27T04:48:53.663Z,56.61
2018-09-27T04:51:24.156Z,57.16
2018-09-27T04:53:54.454Z,57.09
2018-09-27T04:56:24.624Z,56.92
2018-09-27T04:58:55.002Z,56.66
2018-09-27T05:01:25.506Z,57.36
2018-09-27T05:03:55.900Z,56.97
2018-09-27T05:06:26.453Z,57.22
2018-09-27T05:08:56.712Z,57.05
2018-09-27T05:11:27.147Z,57.19
2018-09-27T05:13:57.473Z,56.41
2018-09-27T05:16:27.687Z,56.59
2018-09-27T05:18:58.125Z,56.45
2018-09-27T05:21:28.530Z,56.23
2018-09-27T05:23:58.886Z,56.48
2018-09-27T05:26:29.199Z,56.01
2018-09-27T05:28:59.563Z,57.13
2018-09-27T05:31:30.050Z,56.20
2018-09-27T05:34:00.521Z,56.19
2018-09-27T05:36:30.921Z,56.75
2018-09-27T05:39:01.153Z,56.08
2018-09-27T05:41:31.443Z,55.89
2018-09-27T05:44:01.832Z,56.51
2018-09-27T05:46:32.235Z,55.03
2018-09-27T05:49:02.715Z,55.75
2018-09-27T05:51:33.105Z,55.62
2018-09-27T05:54:03.342Z,56.13
2018-09-27T05:56:33.646Z,55.29
2018-09-27T05:59:04.002Z,55.63
2018-09-27T06:01:34.286Z,55.02
2018-09-27T06:04:04.847Z,55.01
2018-09-27T06:06:35.169Z,55.34
2018-09-27T06:09:07.929Z,55.67
2018-09-27T06:11:38.480Z,55.25
2018-09-27T06:14:09.437Z,55.01
2018-09-27T06:16:40.017Z,55.69
2018-09-27T06:19:10.649Z,55.08
2018-09-27T06:21:40.972Z,55.21
2018-09-27T06:24:11.268Z,55.55
2018-09-27T06:26:41.582Z,54.77
2018-09-27T06:29:11.961Z,55.53
2018-09-27T06:31:42.198Z,54.72
2018-09-27T06:34:12.577Z,55.54
2018-09-27T06:36:42.889Z,54.54
2018-09-27T06:39:13.227Z,54.89
2018-09-27T06:41:43.617Z,54.78
2018-09-27T06:44:14.137Z,54.29
2018-09-27T06:46:44.521Z,54.17
2018-09-27T06:49:14.745Z,53.58
2018-09-27T06:51:45.056Z,53.66
2018-09-27T06:54:15.546Z,53.84
2018-09-27T06:56:45.863Z,53.43
2018-09-27T06:59:16.295Z,53.38
2018-09-27T07:01:46.586Z,53.13
2018-09-27T07:04:17.033Z,53.94
2018-09-27T07:06:47.460Z,54.26
2018-09-27T07:09:17.929Z,53.96
2018-09-27T07:11:48.236Z,52.83
2018-09-27T07:14:18.554Z,52.12
2018-09-27T07:16:48.969Z,52.55
2018-09-27T07:19:19.335Z,52.90
2018-09-27T07:21:49.573Z,52.11
2018-09-27T07:24:19.986Z,51.53
2018-09-27T07:26:50.763Z,49.41
2018-09-27T07:29:21.053Z,49.42
2018-09-27T07:31:51.446Z,48.67
2018-09-27T07:34:21.813Z,45.96
2018-09-27T07:36:52.193Z,42.82
2018-09-27T07:39:22.749Z,42.31
2018-09-27T07:41:53.262Z,38.95
2018-09-27T07:44:23.694Z,36.47
2018-09-27T07:46:54.039Z,36.13
2018-09-27T07:49:24.366Z,35.56
2018-09-27T07:51:54.772Z,34.83
2018-09-27T07:54:25.399Z,34.32
2018-09-27T07:56:55.746Z,34.52
2018-09-27T07:59:26.159Z,33.50
2018-09-27T08:01:56.521Z,34.67
2018-09-27T08:04:27.063Z,33.45
2018-09-27T08:06:57.374Z,36.05
2018-09-27T08:09:27.859Z,37.78
2018-09-27T08:11:58.197Z,38.79
2018-09-27T08:14:28.646Z,40.13
2018-09-27T08:16:59.082Z,41.18
2018-09-27T08:19:29.337Z,42.58
2018-09-27T08:21:59.603Z,42.78
2018-09-27T08:24:29.895Z,42.33
2018-09-27T08:27:00.313Z,43.52
2018-09-27T08:29:30.760Z,43.53
2018-09-27T08:32:01.090Z,43.29
2018-09-27T08:34:31.402Z,43.39
2018-09-27T08:37:01.689Z,43.24
2018-09-27T08:39:32.091Z,44.10
2018-09-27T08:42:02.259Z,42.98
2018-09-27T08:44:32.905Z,42.83
2018-09-27T08:47:03.052Z,42.15
2018-09-27T08:49:33.285Z,40.99
2018-09-27T08:52:03.504Z,41.22
2018-09-27T08:54:33.880Z,40.17
2018-09-27T08:57:04.152Z,38.23
2018-09-27T08:59:34.517Z,38.50
2018-09-27T09:02:05.029Z,38.11
2018-09-27T09:04:35.487Z,37.54
2018-09-27T09:07:05.753Z,38.56
2018-09-27T09:09:36.132Z,37.56
2018-09-27T09:12:06.743Z,38.00
2018-09-27T09:14:37.219Z,38.75
2018-09-27T09:17:07.820Z,39.13
2018-09-27T09:19:38.205Z,40.21
2018-09-27T09:22:08.652Z,38.81
2018-09-27T09:24:39.144Z,38.68
2018-09-27T09:27:09.607Z,39.42
2018-09-27T09:29:40.116Z,39.39
2018-09-27T09:32:10.364Z,38.92
2018-09-27T09:34:40.749Z,40.01
2018-09-27T09:37:11.136Z,40.01
2018-09-27T09:39:41.516Z,40.60
2018-09-27T09:42:12.020Z,40.51
2018-09-27T09:44:43.266Z,41.76
2018-09-27T09:47:13.782Z,40.81
2018-09-27T09:49:44.019Z,40.20
2018-09-27T09:52:14.336Z,39.54
2018-09-27T09:54:44.687Z,39.30
2018-09-27T09:57:15.013Z,39.86
2018-09-27T09:59:45.268Z,39.63
2018-09-27T10:02:15.589Z,39.29
2018-09-27T10:04:45.936Z,39.71
2018-09-27T10:07:16.536Z,39.96
2018-09-27T10:09:46.912Z,39.27
2018-09-27T10:12:17.152Z,39.67
2018-09-27T10:14:47.537Z,40.80
2018-09-27T10:17:17.948Z,39.87
2018-09-27T10:19:48.188Z,40.46
2018-09-27T10:22:18.576Z,39.54
2018-09-27T10:24:49.072Z,39.91
2018-09-27T10:27:19.700Z,39.92
2018-09-27T10:29:50.274Z,39.48
2018-09-27T10:32:20.733Z,39.45
2018-09-27T10:34:51.177Z,39.60
2018-09-27T10:37:21.572Z,39.82
2018-09-27T10:39:51.972Z,40.14
2018-09-27T10:42:22.348Z,40.21
2018-09-27T10:44:52.770Z,41.65
2018-09-27T10:47:22.979Z,42.69
2018-09-27T10:49:53.348Z,41.57
2018-09-27T10:52:23.824Z,42.26
2018-09-27T10:54:54.344Z,41.60
2018-09-27T10:57:24.610Z,42.07
2018-09-27T10:59:55.043Z,42.32
2018-09-27T11:02:25.457Z,43.04
2018-09-27T11:04:55.965Z,42.82
2018-09-27T11:07:26.465Z,43.99
2018-09-27T11:09:56.998Z,44.07
2018-09-27T11:12:27.396Z,45.32
2018-09-27T11:14:57.772Z,45.41
2018-09-27T11:17:28.084Z,46.25
2018-09-27T11:19:58.439Z,45.30
2018-09-27T11:22:28.903Z,45.80
2018-09-27T11:24:59.496Z,45.18
2018-09-27T11:27:29.941Z,45.13
2018-09-27T11:30:05.381Z,44.63
2018-09-27T11:32:44.063Z,44.31
2018-09-27T11:35:15.190Z,43.62
2018-09-27T11:37:45.506Z,45.29
2018-09-27T11:40:16.012Z,45.20
2018-09-27T11:42:46.318Z,45.07
2018-09-27T11:45:16.887Z,44.63
2018-09-27T11:47:47.249Z,44.75
2018-09-27T11:50:17.547Z,44.68
2018-09-27T11:52:47.898Z,45.90
2018-09-27T11:55:18.400Z,45.87
2018-09-27T11:57:48.781Z,45.92
2018-09-27T12:00:19.259Z,45.45
2018-09-27T12:02:49.615Z,45.34
2018-09-27T12:05:20.125Z,45.59
2018-09-27T12:07:50.608Z,44.34
2018-09-27T12:10:20.836Z,44.78
2018-09-27T12:12:51.251Z,45.01
2018-09-27T12:15:21.789Z,44.57
2018-09-27T12:17:52.126Z,45.15
2018-09-27T12:20:22.374Z,43.79
2018-09-27T12:22:52.871Z,44.81
2018-09-27T12:25:23.258Z,44.91
2018-09-27T12:27:53.502Z,44.82
2018-09-27T12:30:23.977Z,44.34
2018-09-27T12:32:54.323Z,44.62
2018-09-27T12:35:24.549Z,44.11
2018-09-27T12:37:54.823Z,44.78
2018-09-27T12:40:25.282Z,45.39
2018-09-27T12:42:55.692Z,43.81
2018-09-27T12:45:26.087Z,43.75
2018-09-27T12:47:56.394Z,44.09
2018-09-27T12:50:26.895Z,44.97
2018-09-27T12:52:57.273Z,44.44
2018-09-27T12:55:27.581Z,43.12
2018-09-27T12:57:57.906Z,43.87
2018-09-27T13:00:28.280Z,43.16
2018-09-27T13:02:58.697Z,43.63
2018-09-27T13:05:28.816Z,43.26
2018-09-27T13:07:59.176Z,44.26
2018-09-27T13:10:29.574Z,43.50
2018-09-27T13:12:59.900Z,43.43
2018-09-27T13:15:30.203Z,43.43
2018-09-27T13:18:00.516Z,42.72
2018-09-27T13:20:30.893Z,43.85
2018-09-27T13:23:01.221Z,42.81
2018-09-27T13:25:31.568Z,44.33
2018-09-27T13:28:02.039Z,43.89
2018-09-27T13:30:32.497Z,44.20
2018-09-27T13:33:02.823Z,42.89
2018-09-27T13:35:33.338Z,44.19
2018-09-27T13:38:03.759Z,42.90
2018-09-27T13:40:34.241Z,43.31
2018-09-27T13:43:04.546Z,43.08
2018-09-27T13:45:35.120Z,43.13
2018-09-27T13:48:05.361Z,43.16
2018-09-27T13:50:35.850Z,43.17
2018-09-27T13:53:06.440Z,42.93
2018-09-27T13:55:36.912Z,44.14
2018-09-27T13:58:07.290Z,43.74
2018-09-27T14:00:37.768Z,44.32
2018-09-27T14:03:08.329Z,43.49
2018-09-27T14:05:38.690Z,43.12
2018-09-27T14:08:09.012Z,43.63
2018-09-27T14:10:39.565Z,43.68
2018-09-27T14:13:09.892Z,43.83
2018-09-27T14:15:40.192Z,43.48
2018-09-27T14:18:10.520Z,43.71
2018-09-27T14:20:41.004Z,43.56
2018-09-27T14:23:11.489Z,43.00
2018-09-27T14:25:41.986Z,43.29
2018-09-27T14:28:12.267Z,44.01
2018-09-27T14:30:42.588Z,43.12
2018-09-27T14:33:12.924Z,42.80
2018-09-27T14:35:43.453Z,42.56
2018-09-27T14:38:13.888Z,43.79
2018-09-27T14:40:44.243Z,42.88
2018-09-27T14:43:14.616Z,44.22
2018-09-27T14:45:45.164Z,43.57
2018-09-27T14:48:15.381Z,43.49
2018-09-27T14:50:45.654Z,43.94
2018-09-27T14:53:16.132Z,43.52
2018-09-27T14:55:46.608Z,42.53
2018-09-27T14:58:17.046Z,43.73
2018-09-27T15:00:47.412Z,42.82
2018-09-27T15:03:17.659Z,43.19
2018-09-27T15:05:48.159Z,43.09
2018-09-27T15:08:18.764Z,43.95
2018-09-27T15:10:49.227Z,43.21
2018-09-27T15:13:19.491Z,42.87
2018-09-27T15:15:49.965Z,43.18
2018-09-27T15:18:20.273Z,42.43
2018-09-27T15:20:50.740Z,42.50
2018-09-27T15:23:21.025Z,41.73
2018-09-27T15:25:51.380Z,42.78
2018-09-27T15:28:21.673Z,41.46
2018-09-27T15:30:52.330Z,42.00
2018-09-27T15:33:22.748Z,41.34
2018-09-27T15:35:53.112Z,41.75
2018-09-27T15:38:23.387Z,42.55
2018-09-27T15:40:53.900Z,42.73
2018-09-27T15:43:24.372Z,43.17
2018-09-27T15:45:54.628Z,42.35
2018-09-27T15:48:24.900Z,41.88
2018-09-27T15:50:55.312Z,42.46
2018-09-27T15:53:25.792Z,43.73
2018-09-27T15:55:56.132Z,43.28
2018-09-27T15:58:26.614Z,43.75
2018-09-27T16:00:56.997Z,43.50
2018-09-27T16:03:27.417Z,43.01
2018-09-27T16:05:57.780Z,41.97
2018-09-27T16:08:28.037Z,42.33
2018-09-27T16:10:58.507Z,42.70
2018-09-27T16:13:28.908Z,41.83
2018-09-27T16:15:59.421Z,42.57
2018-09-27T16:18:29.892Z,42.63
2018-09-27T16:21:00.348Z,43.31
2018-09-27T16:23:30.988Z,44.45
2018-09-27T16:26:01.277Z,44.38
2018-09-27T16:28:31.681Z,44.47
2018-09-27T16:31:02.335Z,43.13
2018-09-27T16:33:32.797Z,43.49
2018-09-27T16:36:03.236Z,43.63
2018-09-27T16:38:33.551Z,43.70
2018-09-27T16:41:03.921Z,44.70
2018-09-27T16:43:34.378Z,44.87
2018-09-27T16:46:05.013Z,45.39
2018-09-27T16:48:35.442Z,44.82
2018-09-27T16:51:06.039Z,45.09
2018-09-27T16:53:36.820Z,45.62
2018-09-27T16:56:12.737Z,46.11
2018-09-27T16:58:43.030Z,45.58
2018-09-27T17:01:13.379Z,46.35
2018-09-27T17:03:43.683Z,45.90
2018-09-27T17:06:14.052Z,47.71
2018-09-27T17:08:44.500Z,48.55
2018-09-27T17:11:15.110Z,49.50
2018-09-27T17:13:45.572Z,49.85
2018-09-27T17:16:16.080Z,51.32
2018-09-27T17:18:46.590Z,51.37
2018-09-27T17:21:16.909Z,52.33
2018-09-27T17:23:47.409Z,52.19
2018-09-27T17:26:17.800Z,52.40
2018-09-27T17:28:48.673Z,53.20
2018-09-27T17:31:19.012Z,52.84
2018-09-27T17:33:49.217Z,53.24
2018-09-27T17:36:19.717Z,53.38
2018-09-27T17:38:50.127Z,53.84
2018-09-27T17:41:20.613Z,53.47
2018-09-27T17:43:50.838Z,54.51
2018-09-27T17:46:21.240Z,54.81
2018-09-27T17:48:51.796Z,55.78
2018-09-27T17:51:22.338Z,56.84
2018-09-27T17:53:52.807Z,57.38
2018-09-27T17:56:23.282Z,57.12
2018-09-27T17:58:53.469Z,57.25
2018-09-27T18:01:23.943Z,57.66
2018-09-27T18:03:54.204Z,58.35
2018-09-27T18:06:24.693Z,59.52
2018-09-27T18:08:55.033Z,58.77
2018-09-27T18:11:25.381Z,59.72
2018-09-27T18:13:56.097Z,59.57
2018-09-27T18:16:26.711Z,58.92
2018-09-27T18:18:56.981Z,59.13
2018-09-27T18:21:27.483Z,59.77
2018-09-27T18:23:57.851Z,60.09
2018-09-27T18:26:28.378Z,59.87
2018-09-27T18:28:58.848Z,60.80
2018-09-27T18:31:29.471Z,60.29
2018-09-27T18:33:59.912Z,60.52
2018-09-27T18:36:30.371Z,61.10
2018-09-27T18:39:00.749Z,61.31
2018-09-27T18:41:31.240Z,60.41
2018-09-27T18:44:01.715Z,61.21
2018-09-27T18:46:32.309Z,61.02
2018-09-27T18:49:02.704Z,60.76
2018-09-27T18:51:33.285Z,60.93
2018-09-27T18:54:03.606Z,62.02
2018-09-27T18:56:34.124Z,62.46
2018-09-27T18:59:04.635Z,63.14
2018-09-27T19:01:35.615Z,63.17
2018-09-27T19:04:06.108Z,62.48
2018-09-27T19:06:36.565Z,63.03
2018-09-27T19:09:08.313Z,62.79
2018-09-27T19:11:38.557Z,63.94
2018-09-27T19:14:09.092Z,64.16
2018-09-27T19:16:39.632Z,63.42
2018-09-27T19:19:10.098Z,64.48
2018-09-27T19:21:40.588Z,64.60
2018-09-27T19:24:11.247Z,65.56
2018-09-27T19:26:41.637Z,66.77
2018-09-27T19:29:12.048Z,67.90
2018-09-27T19:31:42.503Z,67.25
2018-09-27T19:34:12.972Z,67.48
2018-09-27T19:36:43.478Z,67.73
2018-09-27T19:39:13.908Z,67.68
2018-09-27T19:41:44.333Z,67.79
2018-09-27T19:44:14.810Z,68.27
2018-09-27T19:46:45.400Z,68.67
2018-09-27T19:49:23.708Z,68.97
2018-09-27T19:51:55.522Z,68.78
2018-09-27T19:54:33.836Z,68.99
2018-09-27T19:57:04.225Z,68.10
2018-09-27T19:59:49.251Z,67.88
2018-09-27T20:02:28.913Z,67.74
2018-09-27T20:05:03.400Z,68.79
2018-09-27T20:07:33.759Z,68.46
2018-09-27T20:10:04.127Z,68.88
2018-09-27T20:12:34.542Z,66.94
2018-09-27T20:15:05.121Z,67.58
2018-09-27T20:17:35.591Z,68.06
2018-09-27T20:20:05.781Z,68.26
2018-09-27T20:22:35.937Z,67.24
2018-09-27T20:25:06.058Z,67.57
2018-09-27T20:27:36.144Z,67.46
2018-09-27T20:30:06.711Z,66.87
2018-09-27T20:32:37.185Z,66.69
2018-09-27T20:35:07.288Z,66.19
2018-09-27T20:37:37.385Z,65.57
2018-09-27T20:40:07.523Z,65.53
2018-09-27T20:42:37.640Z,65.22
2018-09-27T20:45:08.797Z,64.50
2018-09-27T20:47:39.336Z,64.78
2018-09-27T20:50:09.815Z,64.51
2018-09-27T20:52:40.363Z,63.76
2018-09-27T20:55:10.880Z,61.99
2018-09-27T20:57:41.448Z,61.03
2018-09-27T21:00:11.771Z,61.17
2018-09-27T21:02:42.148Z,60.65
2018-09-27T21:05:12.648Z,59.44
2018-09-27T21:07:43.019Z,60.86
2018-09-27T21:10:13.568Z,61.33
2018-09-27T21:12:44.059Z,60.75
2018-09-27T21:15:14.445Z,62.25
2018-09-27T21:17:44.938Z,62.53
2018-09-27T21:20:15.191Z,62.08
2018-09-27T21:22:45.536Z,61.91
2018-09-27T21:25:16.753Z,60.02
2018-09-27T21:27:47.419Z,60.23
2018-09-27T21:30:18.239Z,59.67
2018-09-27T21:32:48.627Z,61.25
2018-09-27T21:35:18.917Z,59.71
2018-09-27T21:37:49.343Z,59.37
2018-09-27T21:40:19.654Z,58.03
2018-09-27T21:42:50.104Z,57.58
2018-09-27T21:45:20.432Z,57.04
2018-09-27T21:47:50.876Z,57.54
2018-09-27T21:50:21.091Z,57.41
2018-09-27T21:52:51.532Z,56.57
2018-09-27T21:55:21.965Z,57.22
2018-09-27T21:57:52.522Z,59.14
2018-09-27T22:00:23.010Z,57.78
2018-09-27T22:02:53.360Z,58.65
2018-09-27T22:05:23.753Z,56.79
2018-09-27T22:07:54.145Z,57.74
2018-09-27T22:10:24.401Z,57.58
2018-09-27T22:12:54.882Z,58.50
2018-09-27T22:15:25.265Z,58.79
2018-09-27T22:17:55.902Z,59.65
2018-09-27T22:20:26.361Z,59.18
2018-09-27T22:22:56.864Z,58.45
2018-09-27T22:25:27.420Z,58.21
2018-09-27T22:27:57.675Z,59.27
2018-09-27T22:30:28.172Z,58.15
2018-09-27T22:32:58.645Z,57.50
2018-09-27T22:35:29.156Z,58.71
2018-09-27T22:37:59.832Z,57.35
2018-09-27T22:40:30.307Z,57.74
2018-09-27T22:43:00.801Z,57.49
2018-09-27T22:45:31.316Z,57.32
2018-09-27T22:48:01.638Z,56.96
2018-09-27T22:50:32.019Z,57.36
2018-09-27T22:53:02.305Z,57.31
2018-09-27T22:55:32.792Z,57.04
2018-09-27T22:58:03.180Z,58.01
2018-09-27T23:00:33.628Z,58.36
2018-09-27T23:03:04.012Z,57.95
2018-09-27T23:05:34.421Z,57.53
2018-09-27T23:08:04.872Z,58.07
2018-09-27T23:10:35.350Z,58.24
2018-09-27T23:13:05.832Z,57.65
2018-09-27T23:15:36.241Z,57.97
2018-09-27T23:18:06.594Z,58.92
2018-09-27T23:20:36.987Z,58.86
2018-09-27T23:23:07.511Z,59.49
2018-09-27T23:25:37.972Z,59.00
2018-09-27T23:28:08.217Z,58.87
2018-09-27T23:30:38.660Z,59.08
2018-09-27T23:33:09.264Z,58.46
2018-09-27T23:35:40.171Z,57.74
2018-09-27T23:38:10.689Z,58.61
2018-09-27T23:40:41.083Z,58.32
2018-09-27T23:43:11.540Z,57.69
2018-09-27T23:45:42.052Z,57.36
2018-09-27T23:48:12.573Z,57.66
2018-09-27T23:50:42.866Z,58.45
2018-09-27T23:53:13.353Z,58.50
2018-09-27T23:55:43.753Z,58.16
2018-09-27T23:58:14.126Z,57.64
